Meteo Giornale » Osservazioni meteo Svizzera » Dubendorf

ore: 16:20 - Osservazioni Meteo Dubendorf
Lat. 47° 24' N Lon. 8° 39' E Alt. 448 metri s.l.m.

poco_nuvoloso

24 °C

Poco Nuvoloso

Temp. 24 Ore

16 °C

28 °C

Nord

7.4 Km/h

Dew point 12 °C

Umidità 47 %

Visibilità  10 Km

Il sole sorge alle ore 06:43

Il sole tramonta alle ore 20:08

Data e Ora Cielo e Fenomeni T °C DP °C Um. % Pres. hPa Vis. km Vento km/h
Oggi h: 16:20 poco_nuvoloso Poco Nuvoloso 24 12 47 1019 10 N 7.4
Oggi h: 15:50 nuvoloso Nuvoloso 23 11 46 1019 10 N/NO 11.1
Oggi h: 15:20 nuvoloso Nuvoloso 24 13 50 1019 10 NO 18.5
Oggi h: 14:50 poco_nuvoloso Poco Nuvoloso 23 12 49 1019 10 NO 14.8
Oggi h: 14:20 nuvoloso Nuvoloso 24 14 53 1019 10 O 14.8
Oggi h: 13:50 nuvoloso Nuvoloso 23 12 49 1020 10 O/NO 14.8
Oggi h: 13:20 molto_nuvoloso Molto Nuvoloso 21 14 64 1020 10 N 7.4
Oggi h: 12:50 nuvoloso Nuvoloso 21 14 64 1020 10 NO 7.4
Oggi h: 12:20 nuvoloso Nuvoloso 21 14 64 1020 10 N 5.5
Oggi h: 11:50 molto_nuvoloso Molto Nuvoloso 20 14 68 1020 10 N 5.5
Oggi h: 11:20 nuvoloso Nuvoloso 20 15 72 1020 10 N 5.5
Oggi h: 10:50 molto_nuvoloso Molto Nuvoloso 19 14 72 1020 10 N/NO 13
Oggi h: 10:20 molto_nuvoloso Molto Nuvoloso 19 14 72 1020 10 N/NO 18.5
Oggi h: 09:50 molto_nuvoloso Molto Nuvoloso 18 15 82 1020 10 N/NO 13
Oggi h: 09:20 coperto Coperto 18 15 82 1020 10 NO 16.7
Oggi h: 08:50 molto_nuvoloso Molto Nuvoloso 18 15 82 1019 10 NO 18.5
Oggi h: 08:20 molto_nuvoloso Molto Nuvoloso 18 16 88 1019 10 O/NO 11.1
Oggi h: 07:50 molto_nuvoloso Molto Nuvoloso 17 16 93 1019 10 N 0
Oggi h: 07:20 nuvoloso Nuvoloso 16 16 100 1019 10 N 0
Oggi h: 06:20 molto_nuvoloso Molto Nuvoloso 17 16 93 1018 10 N 0
Oggi h: 05:50 molto_nuvoloso Molto Nuvoloso 17 16 93 1018 10 N 0
Oggi h: 05:20 sereno Sereno 16 16 100 1018 10 N 0
Oggi h: 04:50 sereno Sereno 16 16 100 1018 10 N 3.7
Oggi h: 04:20 poco_nuvoloso Poco Nuvoloso 17 16 93 1018 10 N 0
Oggi h: 03:50 molto_nuvoloso Molto Nuvoloso 17 17 100 1018 10 N 5.5
Oggi h: 03:20 molto_nuvoloso Molto Nuvoloso 17 17 100 1018 10 N 1.8
Oggi h: 02:50 coperto_pioggia Pioggia 17 16 93 1018 8 N 1.8
Oggi h: 02:20 coperto Coperto 20 16 77 1018 10 NO 29.6
Oggi h: 01:50 molto_nuvoloso Molto Nuvoloso 19 16 82 1015 10 N 3.7
Oggi h: 01:20 poco_nuvoloso Poco Nuvoloso 19 15 77 1015 10 N 5.5
Oggi h: 00:50 poco_nuvoloso Poco Nuvoloso 19 15 77 1015 10 N 5.5
Oggi h: 00:20 molto_nuvoloso Molto Nuvoloso 19 16 82 1016 10 N 5.5
Ieri h: 23:50 molto_nuvoloso Molto Nuvoloso 19 16 82 1016 10 N 5.5
Ieri h: 23:20 molto_nuvoloso Molto Nuvoloso 20 16 77 1016 10 N 3.7
Ieri h: 22:50 molto_nuvoloso Molto Nuvoloso 20 16 77 1016 10 N 5.5
Ieri h: 22:20 molto_nuvoloso Molto Nuvoloso 21 16 73 1016 10 N 3.7
Ieri h: 21:50 nuvoloso Nuvoloso 21 16 73 1016 10 N 5.5
Ieri h: 21:20 molto_nuvoloso Molto Nuvoloso 23 16 64 1016 10 N 0
Ieri h: 20:50 molto_nuvoloso Molto Nuvoloso 23 15 60 1016 10 N 0
Ieri h: 20:20 poco_nuvoloso Poco Nuvoloso 24 15 57 1015 10 N 1.8
Ieri h: 19:50 poco_nuvoloso Poco Nuvoloso 26 13 44 1015 10 N 5.5
Ieri h: 19:20 molto_nuvoloso Molto Nuvoloso 27 13 42 1015 10 O 9.3
Ieri h: 18:20 molto_nuvoloso Molto Nuvoloso 27 13 42 1015 10 O 11.1
Ieri h: 17:50 molto_nuvoloso Molto Nuvoloso 28 13 39 1016 10 O 13